sensor_id;sensor_type;location;lat;lon;timestamp;pressure;altitude;pressure_sealevel;temperature;humidity
78144;BME280;67394;52.522;13.622;2023-11-22T00:01:41;101929.41;;;-0.54;100.00
78144;BME280;67394;52.522;13.622;2023-11-22T00:04:08;101940.72;;;-0.48;100.00
78144;BME280;67394;52.522;13.622;2023-11-22T00:06:35;101948.94;;;-0.50;100.00
78144;BME280;67394;52.522;13.622;2023-11-22T00:09:02;101938.97;;;-0.49;100.00
78144;BME280;67394;52.522;13.622;2023-11-22T00:11:29;101944.13;;;-0.47;100.00
78144;BME280;67394;52.522;13.622;2023-11-22T00:13:55;101945.66;;;-0.49;100.00
78144;BME280;67394;52.522;13.622;2023-11-22T00:16:24;101945.19;;;-0.44;100.00
78144;BME280;67394;52.522;13.622;2023-11-22T00:18:50;101952.44;;;-0.48;100.00
78144;BME280;67394;52.522;13.622;2023-11-22T00:21:18;101959.13;;;-0.49;100.00
78144;BME280;67394;52.522;13.622;2023-11-22T00:23:45;101967.88;;;-0.44;100.00
78144;BME280;67394;52.522;13.622;2023-11-22T00:26:12;101975.59;;;-0.41;100.00
78144;BME280;67394;52.522;13.622;2023-11-22T00:28:39;101987.41;;;-0.40;100.00
78144;BME280;67394;52.522;13.622;2023-11-22T00:31:05;101980.84;;;-0.38;100.00
78144;BME280;67394;52.522;13.622;2023-11-22T00:33:32;101992.75;;;-0.35;100.00
78144;BME280;67394;52.522;13.622;2023-11-22T00:35:58;102000.31;;;-0.35;100.00
78144;BME280;67394;52.522;13.622;2023-11-22T00:38:25;102000.97;;;-0.38;100.00
78144;BME280;67394;52.522;13.622;2023-11-22T00:40:52;102001.28;;;-0.33;100.00
78144;BME280;67394;52.522;13.622;2023-11-22T00:43:19;102004.00;;;-0.30;100.00
78144;BME280;67394;52.522;13.622;2023-11-22T00:45:45;102007.50;;;-0.28;100.00
78144;BME280;67394;52.522;13.622;2023-11-22T00:48:12;102010.97;;;-0.26;100.00
78144;BME280;67394;52.522;13.622;2023-11-22T00:50:39;102017.47;;;-0.29;100.00
78144;BME280;67394;52.522;13.622;2023-11-22T00:53:06;102017.56;;;-0.28;100.00
78144;BME280;67394;52.522;13.622;2023-11-22T00:55:33;102003.22;;;-0.29;100.00
78144;BME280;67394;52.522;13.622;2023-11-22T00:57:59;102005.75;;;-0.29;100.00
78144;BME280;67394;52.522;13.622;2023-11-22T01:00:26;102013.38;;;-0.41;100.00
78144;BME280;67394;52.522;13.622;2023-11-22T01:02:53;102014.13;;;-0.42;100.00
78144;BME280;67394;52.522;13.622;2023-11-22T01:05:19;102010.91;;;-0.52;100.00
78144;BME280;67394;52.522;13.622;2023-11-22T01:07:46;102010.34;;;-0.48;100.00
78144;BME280;67394;52.522;13.622;2023-11-22T01:10:13;102017.81;;;-0.50;100.00
78144;BME280;67394;52.522;13.622;2023-11-22T01:12:39;102013.91;;;-0.58;100.00
78144;BME280;67394;52.522;13.622;2023-11-22T01:15:07;102035.69;;;-0.58;100.00
78144;BME280;67394;52.522;13.622;2023-11-22T01:17:34;102040.25;;;-0.53;100.00
78144;BME280;67394;52.522;13.622;2023-11-22T01:20:02;102034.06;;;-0.58;100.00
78144;BME280;67394;52.522;13.622;2023-11-22T01:22:29;102027.75;;;-0.64;100.00
78144;BME280;67394;52.522;13.622;2023-11-22T01:24:55;102033.22;;;-0.70;100.00
78144;BME280;67394;52.522;13.622;2023-11-22T01:27:22;102040.56;;;-0.73;100.00
78144;BME280;67394;52.522;13.622;2023-11-22T01:29:49;102039.91;;;-0.70;100.00
78144;BME280;67394;52.522;13.622;2023-11-22T01:32:16;102041.44;;;-0.73;100.00
78144;BME280;67394;52.522;13.622;2023-11-22T01:34:42;102029.44;;;-0.77;100.00
78144;BME280;67394;52.522;13.622;2023-11-22T01:37:09;102039.31;;;-0.80;100.00
78144;BME280;67394;52.522;13.622;2023-11-22T01:39:39;102027.47;;;-0.81;100.00
78144;BME280;67394;52.522;13.622;2023-11-22T01:42:06;102039.09;;;-0.83;100.00
78144;BME280;67394;52.522;13.622;2023-11-22T01:44:32;102033.53;;;-0.90;100.00
78144;BME280;67394;52.522;13.622;2023-11-22T01:47:01;102043.28;;;-0.95;100.00
78144;BME280;67394;52.522;13.622;2023-11-22T01:49:29;102052.03;;;-0.90;100.00
78144;BME280;67394;52.522;13.622;2023-11-22T01:51:55;102044.91;;;-0.95;100.00
78144;BME280;67394;52.522;13.622;2023-11-22T01:54:22;102042.41;;;-0.95;98.01
78144;BME280;67394;52.522;13.622;2023-11-22T01:56:49;102038.81;;;-0.99;96.32
78144;BME280;67394;52.522;13.622;2023-11-22T01:59:17;102039.59;;;-1.00;95.13
78144;BME280;67394;52.522;13.622;2023-11-22T02:01:44;102045.28;;;-1.02;95.40
78144;BME280;67394;52.522;13.622;2023-11-22T02:04:14;102049.16;;;-1.07;94.70
78144;BME280;67394;52.522;13.622;2023-11-22T02:06:41;102049.53;;;-1.01;94.30
78144;BME280;67394;52.522;13.622;2023-11-22T02:09:08;102056.22;;;-1.02;94.31
78144;BME280;67394;52.522;13.622;2023-11-22T02:11:35;102056.22;;;-1.02;93.88
78144;BME280;67394;52.522;13.622;2023-11-22T02:14:02;102060.63;;;-1.11;93.80
78144;BME280;67394;52.522;13.622;2023-11-22T02:16:28;102056.72;;;-1.19;93.18
78144;BME280;67394;52.522;13.622;2023-11-22T02:18:55;102056.16;;;-1.27;93.59
78144;BME280;67394;52.522;13.622;2023-11-22T02:21:22;102056.09;;;-1.28;95.13
78144;BME280;67394;52.522;13.622;2023-11-22T02:23:49;102060.13;;;-1.30;95.27
78144;BME280;67394;52.522;13.622;2023-11-22T02:26:16;102061.09;;;-1.28;95.66
78144;BME280;67394;52.522;13.622;2023-11-22T02:28:42;102060.44;;;-1.37;95.80
78144;BME280;67394;52.522;13.622;2023-11-22T02:31:09;102072.25;;;-1.36;93.32
78144;BME280;67394;52.522;13.622;2023-11-22T02:33:36;102072.25;;;-1.36;95.46
78144;BME280;67394;52.522;13.622;2023-11-22T02:36:03;102069.53;;;-1.39;95.18
78144;BME280;67394;52.522;13.622;2023-11-22T02:38:29;102070.72;;;-1.46;94.18
78144;BME280;67394;52.522;13.622;2023-11-22T02:40:56;102084.94;;;-1.47;93.98
78144;BME280;67394;52.522;13.622;2023-11-22T02:43:25;102081.66;;;-1.45;93.91
78144;BME280;67394;52.522;13.622;2023-11-22T02:45:52;102081.25;;;-1.52;94.48
78144;BME280;67394;52.522;13.622;2023-11-22T02:48:19;102089.31;;;-1.44;94.08
78144;BME280;67394;52.522;13.622;2023-11-22T02:50:46;102087.91;;;-1.52;92.83
78144;BME280;67394;52.522;13.622;2023-11-22T02:53:14;102091.84;;;-1.56;94.35
78144;BME280;67394;52.522;13.622;2023-11-22T02:55:41;102098.06;;;-1.51;92.81
78144;BME280;67394;52.522;13.622;2023-11-22T02:58:07;102102.00;;;-1.54;93.27
78144;BME280;67394;52.522;13.622;2023-11-22T03:00:34;102104.09;;;-1.60;93.21
78144;BME280;67394;52.522;13.622;2023-11-22T03:03:01;102110.41;;;-1.65;95.12
78144;BME280;67394;52.522;13.622;2023-11-22T03:05:28;102116.84;;;-1.69;95.60
78144;BME280;67394;52.522;13.622;2023-11-22T03:07:55;102125.19;;;-1.70;95.93
78144;BME280;67394;52.522;13.622;2023-11-22T03:10:22;102140.03;;;-1.73;96.48
78144;BME280;67394;52.522;13.622;2023-11-22T03:12:48;102147.84;;;-1.80;97.39
78144;BME280;67394;52.522;13.622;2023-11-22T03:15:15;102150.16;;;-1.83;99.26
78144;BME280;67394;52.522;13.622;2023-11-22T03:17:42;102155.50;;;-1.78;99.39
78144;BME280;67394;52.522;13.622;2023-11-22T03:20:09;102166.00;;;-1.84;99.41
78144;BME280;67394;52.522;13.622;2023-11-22T03:22:36;102172.53;;;-1.86;100.00
78144;BME280;67394;52.522;13.622;2023-11-22T03:25:04;102167.28;;;-1.89;100.00
78144;BME280;67394;52.522;13.622;2023-11-22T03:27:31;102167.41;;;-1.88;100.00
78144;BME280;67394;52.522;13.622;2023-11-22T03:29:57;102159.97;;;-1.86;100.00
78144;BME280;67394;52.522;13.622;2023-11-22T03:32:24;102163.59;;;-1.82;100.00
78144;BME280;67394;52.522;13.622;2023-11-22T03:34:51;102171.78;;;-1.85;100.00
78144;BME280;67394;52.522;13.622;2023-11-22T03:37:18;102175.81;;;-1.87;100.00
78144;BME280;67394;52.522;13.622;2023-11-22T03:39:44;102176.25;;;-1.93;100.00
78144;BME280;67394;52.522;13.622;2023-11-22T03:42:11;102183.44;;;-1.97;100.00
78144;BME280;67394;52.522;13.622;2023-11-22T03:44:38;102192.72;;;-1.96;100.00
78144;BME280;67394;52.522;13.622;2023-11-22T03:47:05;102197.19;;;-2.04;100.00
78144;BME280;67394;52.522;13.622;2023-11-22T03:49:31;102185.63;;;-2.02;100.00
78144;BME280;67394;52.522;13.622;2023-11-22T03:51:58;102182.00;;;-2.05;100.00
78144;BME280;67394;52.522;13.622;2023-11-22T03:54:25;102181.13;;;-2.06;100.00
78144;BME280;67394;52.522;13.622;2023-11-22T03:56:51;102169.19;;;-2.08;100.00
78144;BME280;67394;52.522;13.622;2023-11-22T03:59:18;102165.19;;;-2.06;100.00
78144;BME280;67394;52.522;13.622;2023-11-22T04:01:45;102167.09;;;-1.92;100.00
78144;BME280;67394;52.522;13.622;2023-11-22T04:04:12;102168.56;;;-2.06;100.00
78144;BME280;67394;52.522;13.622;2023-11-22T04:06:39;102172.47;;;-2.09;100.00
78144;BME280;67394;52.522;13.622;2023-11-22T04:09:06;102168.97;;;-2.11;100.00
78144;BME280;67394;52.522;13.622;2023-11-22T04:11:32;102172.25;;;-2.12;100.00
78144;BME280;67394;52.522;13.622;2023-11-22T04:13:59;102172.16;;;-2.14;100.00
78144;BME280;67394;52.522;13.622;2023-11-22T04:16:26;102185.09;;;-2.19;100.00
78144;BME280;67394;52.522;13.622;2023-11-22T04:18:53;102185.75;;;-2.22;100.00
78144;BME280;67394;52.522;13.622;2023-11-22T04:21:20;102200.47;;;-2.27;100.00
78144;BME280;67394;52.522;13.622;2023-11-22T04:23:47;102211.50;;;-2.25;100.00
78144;BME280;67394;52.522;13.622;2023-11-22T04:26:14;102209.47;;;-2.18;100.00
78144;BME280;67394;52.522;13.622;2023-11-22T04:28:40;102210.28;;;-2.30;100.00
78144;BME280;67394;52.522;13.622;2023-11-22T04:31:07;102213.03;;;-2.27;100.00
78144;BME280;67394;52.522;13.622;2023-11-22T04:33:34;102215.19;;;-2.31;100.00
78144;BME280;67394;52.522;13.622;2023-11-22T04:36:01;102224.34;;;-2.32;100.00
78144;BME280;67394;52.522;13.622;2023-11-22T04:38:29;102221.38;;;-2.38;100.00
78144;BME280;67394;52.522;13.622;2023-11-22T04:40:55;102216.13;;;-2.41;100.00
78144;BME280;67394;52.522;13.622;2023-11-22T04:43:24;102212.59;;;-2.43;100.00
78144;BME280;67394;52.522;13.622;2023-11-22T04:45:50;102224.53;;;-2.40;100.00
78144;BME280;67394;52.522;13.622;2023-11-22T04:48:17;102219.25;;;-2.43;100.00
78144;BME280;67394;52.522;13.622;2023-11-22T04:50:44;102225.94;;;-2.44;100.00
78144;BME280;67394;52.522;13.622;2023-11-22T04:53:11;102218.00;;;-2.38;100.00
78144;BME280;67394;52.522;13.622;2023-11-22T04:55:38;102222.63;;;-2.43;100.00
78144;BME280;67394;52.522;13.622;2023-11-22T04:58:04;102241.22;;;-2.41;100.00
78144;BME280;67394;52.522;13.622;2023-11-22T05:00:31;102247.16;;;-2.50;100.00
78144;BME280;67394;52.522;13.622;2023-11-22T05:02:58;102254.69;;;-2.50;100.00
78144;BME280;67394;52.522;13.622;2023-11-22T05:05:25;102252.31;;;-2.49;100.00
78144;BME280;67394;52.522;13.622;2023-11-22T05:07:52;102257.63;;;-2.56;100.00
78144;BME280;67394;52.522;13.622;2023-11-22T05:10:19;102264.84;;;-2.49;100.00
78144;BME280;67394;52.522;13.622;2023-11-22T05:12:46;102267.00;;;-2.53;100.00
78144;BME280;67394;52.522;13.622;2023-11-22T05:15:13;102281.16;;;-2.54;100.00
78144;BME280;67394;52.522;13.622;2023-11-22T05:17:41;102294.72;;;-2.52;100.00
78144;BME280;67394;52.522;13.622;2023-11-22T05:20:09;102294.50;;;-2.55;100.00
78144;BME280;67394;52.522;13.622;2023-11-22T05:22:37;102288.34;;;-2.59;100.00
78144;BME280;67394;52.522;13.622;2023-11-22T05:25:04;102287.22;;;-2.62;100.00
78144;BME280;67394;52.522;13.622;2023-11-22T05:27:31;102294.75;;;-2.62;100.00
78144;BME280;67394;52.522;13.622;2023-11-22T05:29:58;102294.75;;;-2.62;100.00
78144;BME280;67394;52.522;13.622;2023-11-22T05:32:24;102300.31;;;-2.66;100.00
78144;BME280;67394;52.522;13.622;2023-11-22T05:34:51;102295.03;;;-2.69;100.00
78144;BME280;67394;52.522;13.622;2023-11-22T05:37:20;102305.69;;;-2.72;100.00
78144;BME280;67394;52.522;13.622;2023-11-22T05:39:47;102306.09;;;-2.77;100.00
78144;BME280;67394;52.522;13.622;2023-11-22T05:42:14;102317.25;;;-2.84;100.00
78144;BME280;67394;52.522;13.622;2023-11-22T05:44:41;102315.41;;;-2.86;100.00
78144;BME280;67394;52.522;13.622;2023-11-22T05:47:08;102308.84;;;-2.84;100.00
78144;BME280;67394;52.522;13.622;2023-11-22T05:49:35;102302.09;;;-2.85;100.00
78144;BME280;67394;52.522;13.622;2023-11-22T05:52:01;102310.91;;;-2.90;100.00
78144;BME280;67394;52.522;13.622;2023-11-22T05:54:28;102322.56;;;-2.91;100.00
78144;BME280;67394;52.522;13.622;2023-11-22T05:56:55;102321.94;;;-2.88;100.00
78144;BME280;67394;52.522;13.622;2023-11-22T05:59:23;102319.66;;;-2.96;100.00
78144;BME280;67394;52.522;13.622;2023-11-22T06:01:50;102311.91;;;-2.99;100.00
78144;BME280;67394;52.522;13.622;2023-11-22T06:04:16;102320.31;;;-2.98;100.00
78144;BME280;67394;52.522;13.622;2023-11-22T06:06:43;102315.66;;;-3.04;100.00
78144;BME280;67394;52.522;13.622;2023-11-22T06:09:10;102320.69;;;-3.04;100.00
78144;BME280;67394;52.522;13.622;2023-11-22T06:11:37;102328.97;;;-3.05;100.00
78144;BME280;67394;52.522;13.622;2023-11-22T06:14:03;102330.59;;;-3.05;100.00
78144;BME280;67394;52.522;13.622;2023-11-22T06:16:30;102332.22;;;-3.06;100.00
78144;BME280;67394;52.522;13.622;2023-11-22T06:18:57;102333.63;;;-3.09;100.00
78144;BME280;67394;52.522;13.622;2023-11-22T06:21:24;102323.94;;;-3.05;100.00
78144;BME280;67394;52.522;13.622;2023-11-22T06:23:51;102326.09;;;-2.99;100.00
78144;BME280;67394;52.522;13.622;2023-11-22T06:26:17;102316.28;;;-3.06;100.00
78144;BME280;67394;52.522;13.622;2023-11-22T06:28:44;102319.69;;;-3.06;100.00
78144;BME280;67394;52.522;13.622;2023-11-22T06:31:11;102326.72;;;-3.12;100.00
78144;BME280;67394;52.522;13.622;2023-11-22T06:33:37;102326.59;;;-3.13;100.00
78144;BME280;67394;52.522;13.622;2023-11-22T06:36:04;102337.09;;;-3.07;100.00
78144;BME280;67394;52.522;13.622;2023-11-22T06:38:31;102335.75;;;-3.14;100.00
78144;BME280;67394;52.522;13.622;2023-11-22T06:40:58;102339.75;;;-3.16;100.00
78144;BME280;67394;52.522;13.622;2023-11-22T06:43:25;102353.69;;;-3.19;100.00
78144;BME280;67394;52.522;13.622;2023-11-22T06:45:51;102364.19;;;-3.23;100.00
78144;BME280;67394;52.522;13.622;2023-11-22T06:48:18;102374.63;;;-3.19;100.00
78144;BME280;67394;52.522;13.622;2023-11-22T06:50:45;102384.66;;;-3.19;100.00
78144;BME280;67394;52.522;13.622;2023-11-22T06:53:12;102391.41;;;-3.18;100.00
78144;BME280;67394;52.522;13.622;2023-11-22T06:55:38;102390.63;;;-3.17;100.00
78144;BME280;67394;52.522;13.622;2023-11-22T06:58:05;102394.41;;;-3.22;100.00
78144;BME280;67394;52.522;13.622;2023-11-22T07:00:32;102402.19;;;-3.29;100.00
78144;BME280;67394;52.522;13.622;2023-11-22T07:02:59;102404.78;;;-3.27;100.00
78144;BME280;67394;52.522;13.622;2023-11-22T07:05:26;102410.06;;;-3.24;100.00
78144;BME280;67394;52.522;13.622;2023-11-22T07:07:53;102418.22;;;-3.17;100.00
78144;BME280;67394;52.522;13.622;2023-11-22T07:10:19;102427.50;;;-3.16;100.00
78144;BME280;67394;52.522;13.622;2023-11-22T07:12:46;102425.13;;;-3.14;100.00
78144;BME280;67394;52.522;13.622;2023-11-22T07:15:13;102431.16;;;-3.12;100.00
78144;BME280;67394;52.522;13.622;2023-11-22T07:17:40;102429.66;;;-3.10;100.00
78144;BME280;67394;52.522;13.622;2023-11-22T07:20:06;102424.88;;;-3.07;100.00
78144;BME280;67394;52.522;13.622;2023-11-22T07:22:33;102419.00;;;-3.08;100.00
78144;BME280;67394;52.522;13.622;2023-11-22T07:25:00;102436.78;;;-3.05;100.00
78144;BME280;67394;52.522;13.622;2023-11-22T07:27:27;102428.03;;;-3.00;100.00
78144;BME280;67394;52.522;13.622;2023-11-22T07:29:54;102433.53;;;-2.93;100.00
78144;BME280;67394;52.522;13.622;2023-11-22T07:32:20;102434.69;;;-2.90;100.00
78144;BME280;67394;52.522;13.622;2023-11-22T07:34:47;102432.91;;;-2.91;100.00
78144;BME280;67394;52.522;13.622;2023-11-22T07:37:14;102432.78;;;-2.82;100.00
78144;BME280;67394;52.522;13.622;2023-11-22T07:39:42;102437.53;;;-2.85;100.00
78144;BME280;67394;52.522;13.622;2023-11-22T07:42:09;102436.91;;;-2.83;100.00
78144;BME280;67394;52.522;13.622;2023-11-22T07:44:36;102442.31;;;-2.78;100.00
78144;BME280;67394;52.522;13.622;2023-11-22T07:47:03;102439.44;;;-2.73;100.00
78144;BME280;67394;52.522;13.622;2023-11-22T07:49:30;102431.66;;;-2.66;100.00
78144;BME280;67394;52.522;13.622;2023-11-22T07:51:56;102445.69;;;-2.58;100.00
78144;BME280;67394;52.522;13.622;2023-11-22T07:54:25;102447.59;;;-2.55;100.00
78144;BME280;67394;52.522;13.622;2023-11-22T07:56:54;102447.06;;;-2.51;100.00
78144;BME280;67394;52.522;13.622;2023-11-22T07:59:21;102438.16;;;-2.47;100.00
78144;BME280;67394;52.522;13.622;2023-11-22T08:01:47;102430.09;;;-2.43;100.00
78144;BME280;67394;52.522;13.622;2023-11-22T08:04:15;102412.91;;;-2.39;100.00
78144;BME280;67394;52.522;13.622;2023-11-22T08:06:42;102403.34;;;-2.33;100.00
78144;BME280;67394;52.522;13.622;2023-11-22T08:09:09;102406.22;;;-2.28;100.00
78144;BME280;67394;52.522;13.622;2023-11-22T08:11:36;102391.53;;;-2.24;100.00
78144;BME280;67394;52.522;13.622;2023-11-22T08:14:03;102395.53;;;-2.15;100.00
78144;BME280;67394;52.522;13.622;2023-11-22T08:16:30;102403.06;;;-2.15;100.00
78144;BME280;67394;52.522;13.622;2023-11-22T08:19:04;102404.81;;;-2.14;100.00
78144;BME280;67394;52.522;13.622;2023-11-22T08:21:31;102406.28;;;-2.06;100.00
78144;BME280;67394;52.522;13.622;2023-11-22T08:23:58;102413.31;;;-2.02;100.00
78144;BME280;67394;52.522;13.622;2023-11-22T08:26:26;102413.75;;;-1.86;100.00
78144;BME280;67394;52.522;13.622;2023-11-22T08:28:53;102414.50;;;-1.87;100.00
78144;BME280;67394;52.522;13.622;2023-11-22T08:31:20;102414.09;;;-1.81;100.00
78144;BME280;67394;52.522;13.622;2023-11-22T08:33:46;102409.53;;;-1.75;100.00
78144;BME280;67394;52.522;13.622;2023-11-22T08:36:13;102416.19;;;-1.76;100.00
78144;BME280;67394;52.522;13.622;2023-11-22T08:38:40;102418.59;;;-1.77;100.00
78144;BME280;67394;52.522;13.622;2023-11-22T08:41:07;102429.00;;;-1.73;100.00
78144;BME280;67394;52.522;13.622;2023-11-22T08:43:35;102426.97;;;-1.67;100.00
78144;BME280;67394;52.522;13.622;2023-11-22T08:46:02;102426.97;;;-1.67;100.00
78144;BME280;67394;52.522;13.622;2023-11-22T08:48:39;102422.19;;;-1.64;100.00
78144;BME280;67394;52.522;13.622;2023-11-22T08:51:07;102424.81;;;-1.62;100.00
78144;BME280;67394;52.522;13.622;2023-11-22T08:53:34;102424.28;;;-1.58;100.00
78144;BME280;67394;52.522;13.622;2023-11-22T08:56:01;102439.97;;;-1.51;100.00
78144;BME280;67394;52.522;13.622;2023-11-22T08:58:28;102435.81;;;-1.50;100.00
78144;BME280;67394;52.522;13.622;2023-11-22T09:00:54;102434.63;;;-1.43;100.00
78144;BME280;67394;52.522;13.622;2023-11-22T09:03:21;102443.41;;;-1.38;100.00
78144;BME280;67394;52.522;13.622;2023-11-22T09:05:48;102437.84;;;-1.34;100.00
78144;BME280;67394;52.522;13.622;2023-11-22T09:08:15;102446.63;;;-1.29;100.00
78144;BME280;67394;52.522;13.622;2023-11-22T09:10:52;102455.19;;;-1.27;100.00
78144;BME280;67394;52.522;13.622;2023-11-22T09:13:18;102450.16;;;-1.16;100.00
78144;BME280;67394;52.522;13.622;2023-11-22T09:15:45;102457.38;;;-1.20;100.00
78144;BME280;67394;52.522;13.622;2023-11-22T09:18:13;102447.31;;;-1.20;100.00
78144;BME280;67394;52.522;13.622;2023-11-22T09:20:41;102444.50;;;-1.13;100.00
78144;BME280;67394;52.522;13.622;2023-11-22T09:23:08;102439.94;;;-1.07;100.00
78144;BME280;67394;52.522;13.622;2023-11-22T09:25:34;102444.22;;;-1.06;100.00
78144;BME280;67394;52.522;13.622;2023-11-22T09:28:01;102444.41;;;-1.03;99.10
78144;BME280;67394;52.522;13.622;2023-11-22T09:30:30;102434.84;;;-0.97;100.00
78144;BME280;67394;52.522;13.622;2023-11-22T09:33:12;102434.53;;;-0.90;97.83
78144;BME280;67394;52.522;13.622;2023-11-22T09:35:39;102419.84;;;-0.84;96.11
78144;BME280;67394;52.522;13.622;2023-11-22T09:38:07;102415.06;;;-0.81;94.11
78144;BME280;67394;52.522;13.622;2023-11-22T09:40:34;102411.78;;;-0.80;93.09
78144;BME280;67394;52.522;13.622;2023-11-22T09:43:02;102409.63;;;-0.75;95.80
78144;BME280;67394;52.522;13.622;2023-11-22T09:45:30;102411.28;;;-0.64;95.75
78144;BME280;67394;52.522;13.622;2023-11-22T09:47:58;102413.47;;;-0.57;94.23
78144;BME280;67394;52.522;13.622;2023-11-22T09:53:48;102397.59;;;-0.56;92.86
78144;BME280;67394;52.522;13.622;2023-11-22T09:56:19;102390.25;;;-0.53;91.90
78144;BME280;67394;52.522;13.622;2023-11-22T09:58:47;102380.75;;;-0.45;91.74
78144;BME280;67394;52.522;13.622;2023-11-22T10:01:17;102393.53;;;-0.42;92.32
78144;BME280;67394;52.522;13.622;2023-11-22T10:03:47;102407.22;;;-0.39;94.31
78144;BME280;67394;52.522;13.622;2023-11-22T10:06:15;102405.47;;;-0.40;90.56
78144;BME280;67394;52.522;13.622;2023-11-22T10:08:41;102412.59;;;-0.34;90.70
78144;BME280;67394;52.522;13.622;2023-11-22T10:11:08;102419.19;;;-0.24;87.12
78144;BME280;67394;52.522;13.622;2023-11-22T10:13:35;102437.03;;;-0.21;90.25
78144;BME280;67394;52.522;13.622;2023-11-22T10:16:10;102439.09;;;-0.16;91.59
78144;BME280;67394;52.522;13.622;2023-11-22T10:18:41;102438.56;;;-0.12;85.70
78144;BME280;67394;52.522;13.622;2023-11-22T10:21:22;102427.28;;;-0.05;89.20
78144;BME280;67394;52.522;13.622;2023-11-22T10:23:48;102427.16;;;0.05;88.35
78144;BME280;67394;52.522;13.622;2023-11-22T10:26:15;102431.53;;;0.08;85.82
78144;BME280;67394;52.522;13.622;2023-11-22T10:28:42;102432.81;;;0.14;87.88
78144;BME280;67394;52.522;13.622;2023-11-22T10:31:08;102445.19;;;0.23;84.37
78144;BME280;67394;52.522;13.622;2023-11-22T10:33:42;102449.59;;;0.25;85.00
78144;BME280;67394;52.522;13.622;2023-11-22T10:36:09;102452.75;;;0.34;87.87
78144;BME280;67394;52.522;13.622;2023-11-22T10:38:36;102449.78;;;0.40;82.42
78144;BME280;67394;52.522;13.622;2023-11-22T10:41:06;102442.00;;;0.37;85.58
78144;BME280;67394;52.522;13.622;2023-11-22T10:43:34;102438.81;;;0.40;85.33
78144;BME280;67394;52.522;13.622;2023-11-22T10:46:02;102430.50;;;0.41;84.70
78144;BME280;67394;52.522;13.622;2023-11-22T10:48:29;102429.25;;;0.47;85.38
78144;BME280;67394;52.522;13.622;2023-11-22T10:50:57;102436.47;;;0.54;84.41
78144;BME280;67394;52.522;13.622;2023-11-22T10:53:31;102432.84;;;0.62;81.98
78144;BME280;67394;52.522;13.622;2023-11-22T10:56:05;102434.13;;;0.69;85.09
78144;BME280;67394;52.522;13.622;2023-11-22T10:58:34;102437.25;;;0.78;86.07
78144;BME280;67394;52.522;13.622;2023-11-22T11:01:04;102429.44;;;0.87;85.59
78144;BME280;67394;52.522;13.622;2023-11-22T11:03:32;102441.88;;;0.84;81.81
78144;BME280;67394;52.522;13.622;2023-11-22T11:06:02;102437.97;;;0.89;82.53
78144;BME280;67394;52.522;13.622;2023-11-22T11:08:30;102441.13;;;0.98;84.07
78144;BME280;67394;52.522;13.622;2023-11-22T11:10:57;102431.25;;;1.01;82.47
78144;BME280;67394;52.522;13.622;2023-11-22T11:13:25;102437.28;;;1.03;83.45
78144;BME280;67394;52.522;13.622;2023-11-22T11:15:53;102447.00;;;1.10;80.96
78144;BME280;67394;52.522;13.622;2023-11-22T11:18:20;102438.38;;;1.20;81.22
78144;BME280;67394;52.522;13.622;2023-11-22T11:20:56;102421.03;;;1.37;73.18
78144;BME280;67394;52.522;13.622;2023-11-22T11:23:24;102414.25;;;1.36;76.20
78144;BME280;67394;52.522;13.622;2023-11-22T11:25:56;102411.13;;;1.40;79.86
78144;BME280;67394;52.522;13.622;2023-11-22T11:28:24;102405.50;;;1.44;79.15
78144;BME280;67394;52.522;13.622;2023-11-22T11:30:51;102409.56;;;1.42;78.93
78144;BME280;67394;52.522;13.622;2023-11-22T11:38:53;102375.19;;;1.58;78.56
78144;BME280;67394;52.522;13.622;2023-11-22T11:41:28;102374.78;;;1.65;78.49
78144;BME280;67394;52.522;13.622;2023-11-22T11:43:56;102374.22;;;1.69;73.61
78144;BME280;67394;52.522;13.622;2023-11-22T11:46:23;102378.00;;;1.75;76.33
78144;BME280;67394;52.522;13.622;2023-11-22T11:48:51;102375.06;;;1.82;71.79
78144;BME280;67394;52.522;13.622;2023-11-22T11:51:19;102367.38;;;1.81;77.33
78144;BME280;67394;52.522;13.622;2023-11-22T11:53:45;102353.97;;;1.82;73.99
78144;BME280;67394;52.522;13.622;2023-11-22T11:56:13;102345.22;;;1.90;74.96
78144;BME280;67394;52.522;13.622;2023-11-22T11:58:43;102349.56;;;2.06;78.36
78144;BME280;67394;52.522;13.622;2023-11-22T12:01:13;102342.16;;;2.09;68.93
78144;BME280;67394;52.522;13.622;2023-11-22T12:03:40;102336.69;;;2.16;77.71
78144;BME280;67394;52.522;13.622;2023-11-22T12:06:07;102337.63;;;2.31;77.02
78144;BME280;67394;52.522;13.622;2023-11-22T12:08:34;102334.56;;;2.37;74.85
78144;BME280;67394;52.522;13.622;2023-11-22T12:11:00;102331.06;;;2.35;74.90
78144;BME280;67394;52.522;13.622;2023-11-22T12:13:27;102321.47;;;2.29;74.14
78144;BME280;67394;52.522;13.622;2023-11-22T12:15:53;102312.50;;;2.34;74.59
78144;BME280;67394;52.522;13.622;2023-11-22T12:18:20;102304.13;;;2.35;73.93
78144;BME280;67394;52.522;13.622;2023-11-22T12:20:56;102300.31;;;2.42;74.91
78144;BME280;67394;52.522;13.622;2023-11-22T12:23:24;102291.41;;;2.48;74.45
78144;BME280;67394;52.522;13.622;2023-11-22T12:25:58;102278.06;;;2.51;73.53
78144;BME280;67394;52.522;13.622;2023-11-22T12:28:29;102264.72;;;2.39;72.04
78144;BME280;67394;52.522;13.622;2023-11-22T12:31:07;102255.13;;;2.48;75.62
78144;BME280;67394;52.522;13.622;2023-11-22T12:33:34;102261.16;;;2.50;73.17
78144;BME280;67394;52.522;13.622;2023-11-22T12:36:00;102259.81;;;2.56;73.73
78144;BME280;67394;52.522;13.622;2023-11-22T12:38:27;102263.41;;;2.60;72.46
78144;BME280;67394;52.522;13.622;2023-11-22T12:40:56;102253.47;;;2.63;71.99
78144;BME280;67394;52.522;13.622;2023-11-22T12:43:23;102255.22;;;2.64;71.72
78144;BME280;67394;52.522;13.622;2023-11-22T12:46:01;102266.38;;;2.68;72.99